sensor_id;sensor_type;location;lat;lon;timestamp;pressure;altitude;pressure_sealevel;temperature;humidity
46392;BME280;32098;49.448;7.904;2023-05-24T00:01:19;98613.66;;;8.67;74.61
46392;BME280;32098;49.448;7.904;2023-05-24T00:03:51;98618.16;;;8.73;74.76
46392;BME280;32098;49.448;7.904;2023-05-24T00:06:19;98617.75;;;8.76;74.70
46392;BME280;32098;49.448;7.904;2023-05-24T00:08:46;98609.56;;;8.84;74.38
46392;BME280;32098;49.448;7.904;2023-05-24T00:11:12;98617.34;;;8.79;74.59
46392;BME280;32098;49.448;7.904;2023-05-24T00:13:39;98607.03;;;8.96;74.20
46392;BME280;32098;49.448;7.904;2023-05-24T00:16:05;98608.25;;;9.06;74.36
46392;BME280;32098;49.448;7.904;2023-05-24T00:18:32;98606.19;;;9.08;74.13
46392;BME280;32098;49.448;7.904;2023-05-24T00:20:58;98601.66;;;9.15;73.51
46392;BME280;32098;49.448;7.904;2023-05-24T00:23:25;98603.09;;;9.11;73.47
46392;BME280;32098;49.448;7.904;2023-05-24T00:25:52;98605.34;;;9.14;74.06
46392;BME280;32098;49.448;7.904;2023-05-24T00:28:18;98601.66;;;9.15;74.04
46392;BME280;32098;49.448;7.904;2023-05-24T00:30:45;98599.34;;;9.26;73.58
46392;BME280;32098;49.448;7.904;2023-05-24T00:33:11;98594.03;;;9.26;73.56
46392;BME280;32098;49.448;7.904;2023-05-24T00:35:38;98587.69;;;9.20;73.64
46392;BME280;32098;49.448;7.904;2023-05-24T00:38:05;98590.44;;;9.00;73.95
46392;BME280;32098;49.448;7.904;2023-05-24T00:40:31;98586.59;;;8.83;74.00
46392;BME280;32098;49.448;7.904;2023-05-24T00:42:58;98582.53;;;8.74;74.13
46392;BME280;32098;49.448;7.904;2023-05-24T00:45:24;98573.50;;;8.75;74.52
46392;BME280;32098;49.448;7.904;2023-05-24T00:47:51;98572.91;;;8.80;74.73
46392;BME280;32098;49.448;7.904;2023-05-24T00:50:18;98574.75;;;8.79;74.31
46392;BME280;32098;49.448;7.904;2023-05-24T00:52:46;98532.78;;;8.48;74.28
46392;BME280;32098;49.448;7.904;2023-05-24T00:55:14;98572.06;;;8.73;74.03
46392;BME280;32098;49.448;7.904;2023-05-24T00:57:42;98562.25;;;8.73;73.37
46392;BME280;32098;49.448;7.904;2023-05-24T01:00:09;98566.56;;;8.61;74.05
46392;BME280;32098;49.448;7.904;2023-05-24T01:02:36;98566.97;;;8.65;74.00
46392;BME280;32098;49.448;7.904;2023-05-24T01:05:04;98556.53;;;8.50;74.21
46392;BME280;32098;49.448;7.904;2023-05-24T01:07:44;98565.75;;;8.54;72.89
46392;BME280;32098;49.448;7.904;2023-05-24T01:13:28;98575.97;;;8.70;72.33
46392;BME280;32098;49.448;7.904;2023-05-24T01:16:06;98579.47;;;8.51;72.14
46392;BME280;32098;49.448;7.904;2023-05-24T01:18:47;98577.44;;;8.40;72.73
46392;BME280;32098;49.448;7.904;2023-05-24T01:24:13;98585.22;;;8.15;73.29
46392;BME280;32098;49.448;7.904;2023-05-24T01:27:07;98589.53;;;7.97;74.75
46392;BME280;32098;49.448;7.904;2023-05-24T01:29:35;98584.00;;;7.91;76.12
46392;BME280;32098;49.448;7.904;2023-05-24T01:32:03;98588.28;;;7.92;75.24
46392;BME280;32098;49.448;7.904;2023-05-24T01:34:30;98594.03;;;8.16;74.04
46392;BME280;32098;49.448;7.904;2023-05-24T01:36:56;98598.94;;;8.19;74.97
46392;BME280;32098;49.448;7.904;2023-05-24T01:39:25;98573.16;;;8.19;73.48
46392;BME280;32098;49.448;7.904;2023-05-24T01:42:29;98590.31;;;8.43;72.46
46392;BME280;32098;49.448;7.904;2023-05-24T01:47:51;98587.47;;;8.51;70.43
46392;BME280;32098;49.448;7.904;2023-05-24T01:50:32;98596.44;;;8.50;70.27
46392;BME280;32098;49.448;7.904;2023-05-24T01:53:03;98597.09;;;8.52;70.56
46392;BME280;32098;49.448;7.904;2023-05-24T01:55:32;98595.41;;;8.57;69.97
46392;BME280;32098;49.448;7.904;2023-05-24T01:58:01;98600.78;;;8.51;70.32
46392;BME280;32098;49.448;7.904;2023-05-24T02:00:29;98600.56;;;8.46;70.35
46392;BME280;32098;49.448;7.904;2023-05-24T02:02:57;98604.88;;;8.47;70.57
46392;BME280;32098;49.448;7.904;2023-05-24T02:05:24;98603.63;;;8.43;72.17
46392;BME280;32098;49.448;7.904;2023-05-24T02:07:50;98603.44;;;8.38;72.29
46392;BME280;32098;49.448;7.904;2023-05-24T02:10:17;98603.63;;;8.43;72.63
46392;BME280;32098;49.448;7.904;2023-05-24T02:12:44;98602.59;;;8.37;72.80
46392;BME280;32098;49.448;7.904;2023-05-24T02:15:10;98609.38;;;8.40;72.69
46392;BME280;32098;49.448;7.904;2023-05-24T02:17:37;98606.50;;;8.35;73.04
46392;BME280;32098;49.448;7.904;2023-05-24T02:20:03;98602.03;;;8.29;72.87
46392;BME280;32098;49.448;7.904;2023-05-24T02:22:30;98605.50;;;8.23;73.36
46392;BME280;32098;49.448;7.904;2023-05-24T02:24:57;98603.84;;;8.28;73.30
46392;BME280;32098;49.448;7.904;2023-05-24T02:27:24;98608.38;;;8.21;73.67
46392;BME280;32098;49.448;7.904;2023-05-24T02:29:50;98613.69;;;8.21;73.66
46392;BME280;32098;49.448;7.904;2023-05-24T02:32:18;98614.50;;;8.15;74.06
46392;BME280;32098;49.448;7.904;2023-05-24T02:34:45;98611.63;;;8.30;72.98
46392;BME280;32098;49.448;7.904;2023-05-24T02:37:11;98605.50;;;8.23;73.45
46392;BME280;32098;49.448;7.904;2023-05-24T02:39:40;98607.34;;;8.16;74.07
46392;BME280;32098;49.448;7.904;2023-05-24T02:42:08;98601.41;;;8.27;73.72
46392;BME280;32098;49.448;7.904;2023-05-24T02:44:35;98589.94;;;8.20;73.02
46392;BME280;32098;49.448;7.904;2023-05-24T02:47:02;98595.44;;;8.25;74.08
46392;BME280;32098;49.448;7.904;2023-05-24T02:49:28;98595.66;;;8.30;73.83
46392;BME280;32098;49.448;7.904;2023-05-24T02:51:55;98598.56;;;8.22;74.07
46392;BME280;32098;49.448;7.904;2023-05-24T02:54:21;98598.53;;;8.28;73.69
46392;BME280;32098;49.448;7.904;2023-05-24T02:56:48;98581.94;;;8.33;73.32
46392;BME280;32098;49.448;7.904;2023-05-24T02:59:16;98579.09;;;8.28;72.24
46392;BME280;32098;49.448;7.904;2023-05-24T03:01:42;98586.25;;;8.34;73.59
46392;BME280;32098;49.448;7.904;2023-05-24T03:04:10;98594.66;;;8.31;73.17
46392;BME280;32098;49.448;7.904;2023-05-24T03:06:37;98588.28;;;8.38;72.19
46392;BME280;32098;49.448;7.904;2023-05-24T03:09:03;98585.84;;;8.43;71.52
46392;BME280;32098;49.448;7.904;2023-05-24T03:11:30;98596.06;;;8.46;71.53
46392;BME280;32098;49.448;7.904;2023-05-24T03:13:57;98592.78;;;8.51;70.68
46392;BME280;32098;49.448;7.904;2023-05-24T03:16:24;98588.28;;;8.45;71.01
46392;BME280;32098;49.448;7.904;2023-05-24T03:18:50;98585.00;;;8.56;70.82
46392;BME280;32098;49.448;7.904;2023-05-24T03:21:20;98589.91;;;8.46;69.76
46392;BME280;32098;49.448;7.904;2023-05-24T03:23:48;98594.22;;;8.47;69.90
46392;BME280;32098;49.448;7.904;2023-05-24T03:26:16;98597.69;;;8.47;68.92
46392;BME280;32098;49.448;7.904;2023-05-24T03:28:44;98596.06;;;8.40;68.35
46392;BME280;32098;49.448;7.904;2023-05-24T03:31:10;98603.25;;;8.39;69.24
46392;BME280;32098;49.448;7.904;2023-05-24T03:33:38;98595.66;;;8.43;69.50
46392;BME280;32098;49.448;7.904;2023-05-24T03:36:04;98592.81;;;8.44;68.99
46392;BME280;32098;49.448;7.904;2023-05-24T03:38:32;98590.56;;;8.22;69.33
46392;BME280;32098;49.448;7.904;2023-05-24T03:40:59;98604.69;;;8.16;69.54
46392;BME280;32098;49.448;7.904;2023-05-24T03:43:27;98603.88;;;8.02;69.42
46392;BME280;32098;49.448;7.904;2023-05-24T03:45:56;98606.72;;;8.01;69.28
46392;BME280;32098;49.448;7.904;2023-05-24T03:48:23;98606.94;;;8.12;69.10
46392;BME280;32098;49.448;7.904;2023-05-24T03:50:50;98607.94;;;7.98;70.01
46392;BME280;32098;49.448;7.904;2023-05-24T03:53:17;98602.22;;;8.08;69.63
46392;BME280;32098;49.448;7.904;2023-05-24T03:55:46;98574.41;;;7.84;69.52
46392;BME280;32098;49.448;7.904;2023-05-24T03:58:13;98604.88;;;7.94;69.00
46392;BME280;32098;49.448;7.904;2023-05-24T04:00:39;98592.19;;;7.97;69.34
46392;BME280;32098;49.448;7.904;2023-05-24T04:03:06;98603.88;;;8.02;68.88
46392;BME280;32098;49.448;7.904;2023-05-24T04:05:34;98611.84;;;7.89;69.46
46392;BME280;32098;49.448;7.904;2023-05-24T04:08:00;98603.03;;;8.08;69.39
46392;BME280;32098;49.448;7.904;2023-05-24T04:10:28;98612.84;;;8.08;69.30
46392;BME280;32098;49.448;7.904;2023-05-24T04:12:54;98609.38;;;8.14;68.61
46392;BME280;32098;49.448;7.904;2023-05-24T04:15:22;98606.31;;;8.17;68.73
46392;BME280;32098;49.448;7.904;2023-05-24T04:17:49;98611.66;;;8.17;68.29
46392;BME280;32098;49.448;7.904;2023-05-24T04:20:21;98623.09;;;8.30;68.24
46392;BME280;32098;49.448;7.904;2023-05-24T04:22:50;98606.13;;;8.31;67.82
46392;BME280;32098;49.448;7.904;2023-05-24T04:25:17;98610.19;;;8.47;67.58
46392;BME280;32098;49.448;7.904;2023-05-24T04:27:44;98613.47;;;8.49;66.55
46392;BME280;32098;49.448;7.904;2023-05-24T04:30:14;98606.28;;;8.56;66.34
46392;BME280;32098;49.448;7.904;2023-05-24T04:32:42;98608.13;;;8.75;65.65
46392;BME280;32098;49.448;7.904;2023-05-24T04:35:12;98601.16;;;8.87;64.84
46392;BME280;32098;49.448;7.904;2023-05-24T04:37:39;98606.97;;;9.15;65.47
46392;BME280;32098;49.448;7.904;2023-05-24T04:40:06;98608.31;;;9.38;64.41
46392;BME280;32098;49.448;7.904;2023-05-24T04:42:34;98505.00;;;8.95;63.33
46392;BME280;32098;49.448;7.904;2023-05-24T04:45:00;98619.44;;;9.66;63.57
46392;BME280;32098;49.448;7.904;2023-05-24T04:47:27;98608.50;;;9.43;63.96
46392;BME280;32098;49.448;7.904;2023-05-24T04:49:54;98610.56;;;9.41;64.85
46392;BME280;32098;49.448;7.904;2023-05-24T04:52:20;98589.78;;;9.05;64.46
46392;BME280;32098;49.448;7.904;2023-05-24T04:54:47;98607.50;;;8.86;64.89
46392;BME280;32098;49.448;7.904;2023-05-24T04:57:14;98613.25;;;8.70;65.50
46392;BME280;32098;49.448;7.904;2023-05-24T04:59:42;98617.56;;;8.45;66.27
46392;BME280;32098;49.448;7.904;2023-05-24T05:02:08;98619.00;;;8.34;66.72
46392;BME280;32098;49.448;7.904;2023-05-24T05:04:35;98620.03;;;8.33;66.82
46392;BME280;32098;49.448;7.904;2023-05-24T05:07:02;98625.13;;;8.35;67.29
46392;BME280;32098;49.448;7.904;2023-05-24T05:09:29;98619.59;;;8.30;67.16
46392;BME280;32098;49.448;7.904;2023-05-24T05:11:55;98630.47;;;8.22;66.77
46392;BME280;32098;49.448;7.904;2023-05-24T05:14:22;98625.53;;;8.06;67.08
46392;BME280;32098;49.448;7.904;2023-05-24T05:16:48;98620.81;;;7.81;67.50
46392;BME280;32098;49.448;7.904;2023-05-24T05:19:15;98600.56;;;7.74;67.42
46392;BME280;32098;49.448;7.904;2023-05-24T05:21:41;98623.41;;;7.55;67.74
46392;BME280;32098;49.448;7.904;2023-05-24T05:24:08;98627.50;;;7.51;68.66
46392;BME280;32098;49.448;7.904;2023-05-24T05:26:34;98631.25;;;7.76;67.69
46392;BME280;32098;49.448;7.904;2023-05-24T05:29:01;98623.72;;;8.00;66.98
46392;BME280;32098;49.448;7.904;2023-05-24T05:31:28;98598.94;;;8.32;66.78
46392;BME280;32098;49.448;7.904;2023-05-24T05:33:54;98628.75;;;8.99;64.80
46392;BME280;32098;49.448;7.904;2023-05-24T05:36:21;98641.22;;;9.05;64.35
46392;BME280;32098;49.448;7.904;2023-05-24T05:38:48;98635.63;;;9.27;63.47
46392;BME280;32098;49.448;7.904;2023-05-24T05:41:14;98632.53;;;9.36;63.07
46392;BME280;32098;49.448;7.904;2023-05-24T05:43:41;98633.91;;;9.45;62.22
46392;BME280;32098;49.448;7.904;2023-05-24T05:46:07;98636.78;;;9.44;60.90
46392;BME280;32098;49.448;7.904;2023-05-24T05:48:34;98643.41;;;9.28;63.01
46392;BME280;32098;49.448;7.904;2023-05-24T05:51:00;98641.16;;;9.32;63.67
46392;BME280;32098;49.448;7.904;2023-05-24T05:53:27;98637.31;;;9.14;61.74
46392;BME280;32098;49.448;7.904;2023-05-24T05:55:55;98641.41;;;9.10;62.98
46392;BME280;32098;49.448;7.904;2023-05-24T05:58:21;98636.47;;;9.20;62.13
46392;BME280;32098;49.448;7.904;2023-05-24T06:00:48;98640.06;;;8.88;62.42
46392;BME280;32098;49.448;7.904;2023-05-24T06:03:14;98631.97;;;9.21;62.11
46392;BME280;32098;49.448;7.904;2023-05-24T06:05:41;98640.00;;;9.59;61.48
46392;BME280;32098;49.448;7.904;2023-05-24T06:08:08;98635.59;;;9.40;60.13
46392;BME280;32098;49.448;7.904;2023-05-24T06:10:34;98641.59;;;9.66;60.63
46392;BME280;32098;49.448;7.904;2023-05-24T06:13:02;98632.88;;;9.84;59.83
46392;BME280;32098;49.448;7.904;2023-05-24T06:15:29;98645.41;;;9.83;59.52
46392;BME280;32098;49.448;7.904;2023-05-24T06:17:55;98643.38;;;9.79;60.06
46392;BME280;32098;49.448;7.904;2023-05-24T06:20:22;98566.25;;;9.46;59.16
46392;BME280;32098;49.448;7.904;2023-05-24T06:22:49;98643.63;;;9.71;59.86
46392;BME280;32098;49.448;7.904;2023-05-24T06:25:16;98651.44;;;9.21;60.43
46392;BME280;32098;49.448;7.904;2023-05-24T06:27:46;98655.22;;;8.81;60.99
46392;BME280;32098;49.448;7.904;2023-05-24T06:30:12;98647.81;;;9.54;61.14
46392;BME280;32098;49.448;7.904;2023-05-24T06:32:39;98650.72;;;10.21;58.72
46392;BME280;32098;49.448;7.904;2023-05-24T06:35:06;98650.38;;;10.42;57.36
46392;BME280;32098;49.448;7.904;2023-05-24T06:37:33;98646.25;;;11.07;57.16
46392;BME280;32098;49.448;7.904;2023-05-24T06:40:00;98599.91;;;10.95;56.04
46392;BME280;32098;49.448;7.904;2023-05-24T06:42:27;98647.84;;;10.90;55.25
46392;BME280;32098;49.448;7.904;2023-05-24T06:44:53;98659.00;;;11.05;55.44
46392;BME280;32098;49.448;7.904;2023-05-24T06:47:21;98627.22;;;11.15;55.99
46392;BME280;32098;49.448;7.904;2023-05-24T06:49:47;98660.06;;;11.59;55.24
46392;BME280;32098;49.448;7.904;2023-05-24T06:52:16;98645.09;;;11.99;54.24
46392;BME280;32098;49.448;7.904;2023-05-24T06:54:42;98652.72;;;11.84;52.99
46392;BME280;32098;49.448;7.904;2023-05-24T06:57:09;98651.31;;;11.52;53.08
46392;BME280;32098;49.448;7.904;2023-05-24T06:59:36;98657.00;;;11.01;54.07
46392;BME280;32098;49.448;7.904;2023-05-24T07:02:02;98671.66;;;10.74;54.74
46392;BME280;32098;49.448;7.904;2023-05-24T07:04:30;98665.34;;;10.43;55.76
46392;BME280;32098;49.448;7.904;2023-05-24T07:06:57;98676.50;;;9.65;58.67
46392;BME280;32098;49.448;7.904;2023-05-24T07:09:24;98673.00;;;9.64;58.28
46392;BME280;32098;49.448;7.904;2023-05-24T07:11:51;98677.53;;;9.95;58.67
46392;BME280;32098;49.448;7.904;2023-05-24T07:14:18;98681.97;;;9.26;59.66
46392;BME280;32098;49.448;7.904;2023-05-24T07:16:44;98693.03;;;9.29;59.57
46392;BME280;32098;49.448;7.904;2023-05-24T07:19:12;98690.56;;;9.34;59.63
46392;BME280;32098;49.448;7.904;2023-05-24T07:21:39;98688.16;;;9.19;59.54
46392;BME280;32098;49.448;7.904;2023-05-24T07:24:05;98680.38;;;9.11;59.45
46392;BME280;32098;49.448;7.904;2023-05-24T07:26:32;98690.06;;;9.50;59.60
46392;BME280;32098;49.448;7.904;2023-05-24T07:28:58;98688.78;;;9.66;58.76
46392;BME280;32098;49.448;7.904;2023-05-24T07:31:25;98679.59;;;10.00;57.09
46392;BME280;32098;49.448;7.904;2023-05-24T07:33:52;98688.34;;;10.44;56.61
46392;BME280;32098;49.448;7.904;2023-05-24T07:36:19;98699.47;;;10.41;55.34
46392;BME280;32098;49.448;7.904;2023-05-24T07:38:46;98688.94;;;10.46;54.72
46392;BME280;32098;49.448;7.904;2023-05-24T07:41:13;98684.00;;;10.75;54.94
46392;BME280;32098;49.448;7.904;2023-05-24T07:43:39;98585.88;;;10.64;54.90
46392;BME280;32098;49.448;7.904;2023-05-24T07:46:06;98687.19;;;10.83;53.45
46392;BME280;32098;49.448;7.904;2023-05-24T07:48:32;98684.75;;;10.82;54.21
46392;BME280;32098;49.448;7.904;2023-05-24T07:50:59;98685.94;;;10.86;53.29
46392;BME280;32098;49.448;7.904;2023-05-24T07:53:26;98683.53;;;10.78;50.99
46392;BME280;32098;49.448;7.904;2023-05-24T07:55:52;98680.75;;;10.41;53.70
46392;BME280;32098;49.448;7.904;2023-05-24T07:58:19;98686.66;;;10.50;54.10
46392;BME280;32098;49.448;7.904;2023-05-24T08:00:45;98682.81;;;10.89;53.88
46392;BME280;32098;49.448;7.904;2023-05-24T08:03:12;98677.59;;;10.76;52.17
46392;BME280;32098;49.448;7.904;2023-05-24T08:05:40;98672.16;;;10.64;53.38
46392;BME280;32098;49.448;7.904;2023-05-24T08:08:07;98682.66;;;10.10;52.38
46392;BME280;32098;49.448;7.904;2023-05-24T08:10:33;98684.59;;;10.77;52.19
46392;BME280;32098;49.448;7.904;2023-05-24T08:13:00;98676.09;;;10.62;51.50
46392;BME280;32098;49.448;7.904;2023-05-24T08:15:26;98677.81;;;11.17;52.13
46392;BME280;32098;49.448;7.904;2023-05-24T08:17:53;98677.00;;;11.17;51.75
46392;BME280;32098;49.448;7.904;2023-05-24T08:20:20;98667.41;;;11.27;51.49
46392;BME280;32098;49.448;7.904;2023-05-24T08:22:46;98664.84;;;11.39;48.68
46392;BME280;32098;49.448;7.904;2023-05-24T08:25:16;98671.88;;;11.69;49.55
46392;BME280;32098;49.448;7.904;2023-05-24T08:27:42;98669.94;;;12.71;48.94
46392;BME280;32098;49.448;7.904;2023-05-24T08:30:09;98666.75;;;13.55;47.69
46392;BME280;32098;49.448;7.904;2023-05-24T08:32:36;98669.41;;;13.43;44.93
46392;BME280;32098;49.448;7.904;2023-05-24T08:35:04;98661.66;;;12.49;45.90
46392;BME280;32098;49.448;7.904;2023-05-24T08:37:45;98665.44;;;12.83;47.50
46392;BME280;32098;49.448;7.904;2023-05-24T08:40:13;98661.41;;;11.98;46.87
46392;BME280;32098;49.448;7.904;2023-05-24T08:42:40;98657.75;;;12.22;47.75
46392;BME280;32098;49.448;7.904;2023-05-24T08:45:08;98663.47;;;12.37;50.59
46392;BME280;32098;49.448;7.904;2023-05-24T08:47:37;98644.44;;;12.91;48.93
46392;BME280;32098;49.448;7.904;2023-05-24T08:50:05;98666.72;;;13.66;47.98
46392;BME280;32098;49.448;7.904;2023-05-24T08:52:32;98669.47;;;13.09;47.00
46392;BME280;32098;49.448;7.904;2023-05-24T08:55:01;98682.28;;;12.49;46.04
46392;BME280;32098;49.448;7.904;2023-05-24T08:57:31;98676.00;;;13.01;47.01
46392;BME280;32098;49.448;7.904;2023-05-24T09:00:00;98681.81;;;12.63;44.60
46392;BME280;32098;49.448;7.904;2023-05-24T09:02:26;98699.41;;;12.71;43.54
46392;BME280;32098;49.448;7.904;2023-05-24T09:04:54;98700.19;;;12.07;43.06
46392;BME280;32098;49.448;7.904;2023-05-24T09:07:21;98698.94;;;11.43;42.92
46392;BME280;32098;49.448;7.904;2023-05-24T09:10:03;98697.94;;;11.74;44.26
46392;BME280;32098;49.448;7.904;2023-05-24T09:12:31;98660.91;;;11.41;45.14
46392;BME280;32098;49.448;7.904;2023-05-24T09:15:05;98696.91;;;12.05;44.95
46392;BME280;32098;49.448;7.904;2023-05-24T09:17:36;98689.47;;;12.07;44.89
46392;BME280;32098;49.448;7.904;2023-05-24T09:20:07;98686.03;;;12.18;45.68
46392;BME280;32098;49.448;7.904;2023-05-24T09:22:37;98659.13;;;12.13;46.18
46392;BME280;32098;49.448;7.904;2023-05-24T09:25:08;98675.91;;;12.20;45.63
46392;BME280;32098;49.448;7.904;2023-05-24T09:27:35;98670.31;;;12.74;46.24
46392;BME280;32098;49.448;7.904;2023-05-24T09:30:02;98658.75;;;13.09;45.29
46392;BME280;32098;49.448;7.904;2023-05-24T09:32:30;98686.50;;;12.68;42.28
46392;BME280;32098;49.448;7.904;2023-05-24T09:34:58;98676.13;;;13.06;45.24
46392;BME280;32098;49.448;7.904;2023-05-24T09:37:26;98666.31;;;13.35;43.80
46392;BME280;32098;49.448;7.904;2023-05-24T09:39:58;98670.78;;;12.94;43.30
46392;BME280;32098;49.448;7.904;2023-05-24T09:42:25;98668.44;;;12.86;44.78
46392;BME280;32098;49.448;7.904;2023-05-24T09:45:04;98629.25;;;13.09;43.26
46392;BME280;32098;49.448;7.904;2023-05-24T09:47:35;98647.81;;;13.73;43.91
46392;BME280;32098;49.448;7.904;2023-05-24T09:50:04;98657.69;;;13.33;44.29
46392;BME280;32098;49.448;7.904;2023-05-24T09:52:35;98654.00;;;12.64;44.49
46392;BME280;32098;49.448;7.904;2023-05-24T09:55:15;98652.75;;;12.25;46.22
46392;BME280;32098;49.448;7.904;2023-05-24T09:57:51;98667.38;;;11.82;46.89
46392;BME280;32098;49.448;7.904;2023-05-24T10:00:22;98657.88;;;12.27;46.85
46392;BME280;32098;49.448;7.904;2023-05-24T10:03:05;98649.78;;;12.68;44.10
46392;BME280;32098;49.448;7.904;2023-05-24T10:05:34;98535.13;;;12.24;42.95
46392;BME280;32098;49.448;7.904;2023-05-24T10:08:02;98642.25;;;12.65;44.87
46392;BME280;32098;49.448;7.904;2023-05-24T10:10:31;98560.53;;;12.33;44.99
46392;BME280;32098;49.448;7.904;2023-05-24T10:12:59;98643.72;;;13.08;45.38
46392;BME280;32098;49.448;7.904;2023-05-24T10:15:27;98635.81;;;13.92;44.75
46392;BME280;32098;49.448;7.904;2023-05-24T10:17:54;98633.09;;;14.20;44.94
46392;BME280;32098;49.448;7.904;2023-05-24T10:20:22;98645.41;;;13.88;41.89
46392;BME280;32098;49.448;7.904;2023-05-24T10:22:58;98651.81;;;14.15;43.25
46392;BME280;32098;49.448;7.904;2023-05-24T10:25:28;98645.88;;;13.45;39.94
46392;BME280;32098;49.448;7.904;2023-05-24T10:27:57;98640.53;;;13.34;40.38
46392;BME280;32098;49.448;7.904;2023-05-24T10:33:00;98635.69;;;13.59;41.74
46392;BME280;32098;49.448;7.904;2023-05-24T10:35:28;98616.00;;;12.90;40.97
46392;BME280;32098;49.448;7.904;2023-05-24T10:37:55;98650.00;;;13.25;44.33
46392;BME280;32098;49.448;7.904;2023-05-24T10:40:23;98647.34;;;13.13;42.80
46392;BME280;32098;49.448;7.904;2023-05-24T10:42:52;98649.34;;;13.46;42.21
46392;BME280;32098;49.448;7.904;2023-05-24T10:47:51;98638.47;;;13.01;43.90
46392;BME280;32098;49.448;7.904;2023-05-24T10:50:21;98622.41;;;12.66;43.03
46392;BME280;32098;49.448;7.904;2023-05-24T10:52:48;98630.19;;;13.26;46.08
46392;BME280;32098;49.448;7.904;2023-05-24T10:55:14;98609.84;;;13.53;43.32
46392;BME280;32098;49.448;7.904;2023-05-24T10:57:44;98628.13;;;13.84;43.56
46392;BME280;32098;49.448;7.904;2023-05-24T11:03:08;98620.25;;;13.66;44.02
46392;BME280;32098;49.448;7.904;2023-05-24T11:08:12;98634.25;;;13.17;43.37
46392;BME280;32098;49.448;7.904;2023-05-24T11:10:39;98627.00;;;13.29;43.62
46392;BME280;32098;49.448;7.904;2023-05-24T11:13:09;98626.69;;;13.14;44.68
46392;BME280;32098;49.448;7.904;2023-05-24T11:15:36;98623.81;;;13.55;45.67
46392;BME280;32098;49.448;7.904;2023-05-24T11:20:32;98629.38;;;13.65;43.55
46392;BME280;32098;49.448;7.904;2023-05-24T11:23:01;98610.44;;;14.16;44.42
46392;BME280;32098;49.448;7.904;2023-05-24T11:25:28;98625.97;;;13.70;42.38
46392;BME280;32098;49.448;7.904;2023-05-24T11:27:58;98617.56;;;13.94;43.34
46392;BME280;32098;49.448;7.904;2023-05-24T11:30:24;98612.53;;;13.98;43.06
46392;BME280;32098;49.448;7.904;2023-05-24T11:32:51;98624.25;;;13.92;42.61
46392;BME280;32098;49.448;7.904;2023-05-24T11:35:18;98614.69;;;14.12;41.69
46392;BME280;32098;49.448;7.904;2023-05-24T11:37:45;98601.97;;;14.24;42.47
46392;BME280;32098;49.448;7.904;2023-05-24T11:40:12;98607.66;;;13.95;40.83
46392;BME280;32098;49.448;7.904;2023-05-24T11:42:40;98603.16;;;13.44;39.81
46392;BME280;32098;49.448;7.904;2023-05-24T11:45:07;98613.72;;;13.22;42.58
46392;BME280;32098;49.448;7.904;2023-05-24T11:47:37;98610.50;;;13.60;42.76
46392;BME280;32098;49.448;7.904;2023-05-24T11:50:04;98615.22;;;13.30;40.75
46392;BME280;32098;49.448;7.904;2023-05-24T11:52:32;98611.22;;;13.44;40.13
46392;BME280;32098;49.448;7.904;2023-05-24T11:54:58;98608.84;;;13.59;42.98
46392;BME280;32098;49.448;7.904;2023-05-24T11:57:36;98600.97;;;13.81;41.09
46392;BME280;32098;49.448;7.904;2023-05-24T12:00:05;98610.69;;;13.19;40.87
46392;BME280;32098;49.448;7.904;2023-05-24T12:02:36;98604.44;;;13.13;40.97
46392;BME280;32098;49.448;7.904;2023-05-24T12:05:07;98604.47;;;12.55;41.46
46392;BME280;32098;49.448;7.904;2023-05-24T12:07:36;98602.25;;;12.87;42.40
46392;BME280;32098;49.448;7.904;2023-05-24T12:10:03;98595.28;;;12.74;43.35
46392;BME280;32098;49.448;7.904;2023-05-24T12:12:32;98592.56;;;12.86;42.31
46392;BME280;32098;49.448;7.904;2023-05-24T12:15:11;98608.06;;;12.84;41.65
46392;BME280;32098;49.448;7.904;2023-05-24T12:17:38;98556.38;;;12.60;40.78
46392;BME280;32098;49.448;7.904;2023-05-24T12:20:05;98600.91;;;13.24;42.26
46392;BME280;32098;49.448;7.904;2023-05-24T12:22:32;98600.44;;;13.27;40.78
46392;BME280;32098;49.448;7.904;2023-05-24T12:24:58;98595.91;;;13.16;42.96
46392;BME280;32098;49.448;7.904;2023-05-24T12:27:29;98600.97;;;13.52;42.68
46392;BME280;32098;49.448;7.904;2023-05-24T12:30:05;98597.03;;;13.32;40.22
46392;BME280;32098;49.448;7.904;2023-05-24T12:32:32;98572.69;;;13.22;38.18
46392;BME280;32098;49.448;7.904;2023-05-24T12:34:58;98592.47;;;13.72;39.44
46392;BME280;32098;49.448;7.904;2023-05-24T12:37:29;98589.75;;;13.44;40.20
46392;BME280;32098;49.448;7.904;2023-05-24T12:39:56;98580.88;;;13.55;42.32
46392;BME280;32098;49.448;7.904;2023-05-24T12:42:22;98591.22;;;14.41;51.33
46392;BME280;32098;49.448;7.904;2023-05-24T12:44:49;98582.28;;;13.57;42.17
46392;BME280;32098;49.448;7.904;2023-05-24T12:47:18;98586.81;;;13.85;42.54
46392;BME280;32098;49.448;7.904;2023-05-24T12:49:45;98578.28;;;13.48;39.90
46392;BME280;32098;49.448;7.904;2023-05-24T12:52:12;98572.84;;;13.55;41.30
46392;BME280;32098;49.448;7.904;2023-05-24T12:54:39;98576.56;;;13.54;41.91
46392;BME280;32098;49.448;7.904;2023-05-24T12:57:05;98569.34;;;13.71;43.69
46392;BME280;32098;49.448;7.904;2023-05-24T12:59:32;98569.03;;;13.67;43.67
46392;BME280;32098;49.448;7.904;2023-05-24T13:01:59;98571.75;;;13.16;43.67
46392;BME280;32098;49.448;7.904;2023-05-24T13:04:26;98567.56;;;13.60;45.45
46392;BME280;32098;49.448;7.904;2023-05-24T13:06:53;98568.50;;;13.82;43.24
46392;BME280;32098;49.448;7.904;2023-05-24T13:09:20;98569.09;;;14.01;41.81
46392;BME280;32098;49.448;7.904;2023-05-24T13:11:48;98559.41;;;14.16;42.06
46392;BME280;32098;49.448;7.904;2023-05-24T13:14:15;98553.59;;;13.91;41.42
46392;BME280;32098;49.448;7.904;2023-05-24T13:16:42;98554.09;;;13.32;42.22
46392;BME280;32098;49.448;7.904;2023-05-24T13:19:10;98554.94;;;12.81;43.69
46392;BME280;32098;49.448;7.904;2023-05-24T13:21:37;98552.47;;;12.91;42.71
46392;BME280;32098;49.448;7.904;2023-05-24T13:24:04;98550.97;;;13.63;44.69
46392;BME280;32098;49.448;7.904;2023-05-24T13:26:31;98535.16;;;13.95;43.07
46392;BME280;32098;49.448;7.904;2023-05-24T13:29:05;98555.06;;;13.82;42.68
46392;BME280;32098;49.448;7.904;2023-05-24T13:31:52;98556.06;;;13.36;43.60